createdAt,value
2019-01-02T00:00:11.106Z,103086.94
2019-01-02T00:01:11.713Z,103087.17
2019-01-02T00:02:12.389Z,103087.61
2019-01-02T00:03:12.965Z,103088.27
2019-01-02T00:04:13.269Z,103088.43
2019-01-02T00:05:13.298Z,103089.62
2019-01-02T00:06:13.575Z,103089.81
2019-01-02T00:07:14.614Z,103089.63
2019-01-02T00:08:15.029Z,103089.49
2019-01-02T00:09:15.328Z,103089.32
2019-01-02T00:10:16.075Z,103089.74
2019-01-02T00:11:16.798Z,103089.53
2019-01-02T00:12:17.448Z,103089.78
2019-01-02T00:13:18.955Z,103090.72
2019-01-02T00:14:18.150Z,103092.13
2019-01-02T00:15:19.129Z,103092.22
2019-01-02T00:16:19.946Z,103092.74
2019-01-02T00:17:20.655Z,103093.08
2019-01-02T00:18:21.095Z,103093.74
2019-01-02T00:19:21.944Z,103093.23
2019-01-02T00:20:22.159Z,103094.67
2019-01-02T00:21:22.439Z,103094.75
2019-01-02T00:22:22.745Z,103096.09
2019-01-02T00:23:23.044Z,103097.60
2019-01-02T00:24:23.101Z,103099.41
2019-01-02T00:25:23.119Z,103101.50
2019-01-02T00:26:23.756Z,103103.84
2019-01-02T00:27:24.195Z,103105.77
2019-01-02T00:28:24.505Z,103107.61
2019-01-02T00:29:27.028Z,103109.26
2019-01-02T00:30:26.543Z,103111.17
2019-01-02T00:31:26.154Z,103112.95
2019-01-02T00:32:27.579Z,103114.09
2019-01-02T00:33:28.069Z,103116.02
2019-01-02T00:34:27.518Z,103117.84
2019-01-02T00:35:29.120Z,103120.43
2019-01-02T00:36:28.486Z,103122.76
2019-01-02T00:37:30.199Z,103124.17
2019-01-02T00:38:30.699Z,103125.92
2019-01-02T00:39:30.324Z,103126.83
2019-01-02T00:40:31.839Z,103128.51
2019-01-02T00:41:31.841Z,103130.09
2019-01-02T00:42:31.439Z,103131.64
2019-01-02T00:43:33.084Z,103133.07
2019-01-02T00:44:32.728Z,103134.66
2019-01-02T00:45:34.215Z,103135.81
2019-01-02T00:46:34.761Z,103137.95
2019-01-02T00:47:34.276Z,103139.53
2019-01-02T00:48:35.938Z,103141.22
2019-01-02T00:49:36.579Z,103141.80
2019-01-02T00:50:37.188Z,103142.70
2019-01-02T00:51:37.911Z,103144.38
2019-01-02T00:52:37.376Z,103145.45
2019-01-02T00:53:39.047Z,103146.22
2019-01-02T00:54:39.731Z,103148.06
2019-01-02T00:55:39.240Z,103148.73
2019-01-02T00:56:40.764Z,103148.73
2019-01-02T00:57:40.280Z,103150.41
2019-01-02T00:58:41.944Z,103150.89
2019-01-02T00:59:42.407Z,103152.07
2019-01-02T01:00:41.859Z,103153.38
2019-01-02T01:01:43.434Z,103154.12
2019-01-02T01:02:42.834Z,103155.37
2019-01-02T01:03:43.962Z,103156.20
2019-01-02T01:04:44.453Z,103156.81
2019-01-02T01:04:52.825Z,103174.79
2019-01-02T01:05:52.513Z,103174.23
2019-01-02T01:06:53.976Z,103174.30
2019-01-02T01:07:53.766Z,103174.10
2019-01-02T01:08:55.635Z,103174.03
2019-01-02T01:09:56.250Z,103174.38
2019-01-02T01:10:55.819Z,103174.20
2019-01-02T01:11:57.308Z,103174.20
2019-01-02T01:12:57.155Z,103173.94
2019-01-02T01:13:58.705Z,103173.61
2019-01-02T01:14:59.287Z,103174.02
2019-01-02T01:15:59.041Z,103174.83
2019-01-02T01:17:00.497Z,103176.34
2019-01-02T01:18:01.059Z,103177.92
2019-01-02T01:19:01.671Z,103178.91
2019-01-02T01:20:02.181Z,103180.22
2019-01-02T01:21:01.653Z,103181.73
2019-01-02T01:22:03.166Z,103182.97
2019-01-02T01:23:03.714Z,103184.65
2019-01-02T01:24:03.239Z,103185.53
2019-01-02T01:25:03.757Z,103186.71
2019-01-02T01:26:05.338Z,103186.78
2019-01-02T01:27:04.871Z,103187.77
2019-01-02T01:28:06.514Z,103188.77
2019-01-02T01:29:07.042Z,103190.09
2019-01-02T01:30:07.009Z,103190.77
2019-01-02T01:31:08.573Z,103191.33
2019-01-02T01:32:09.019Z,103191.50
2019-01-02T01:33:08.477Z,103191.57
2019-01-02T01:34:09.901Z,103191.84
2019-01-02T01:35:10.290Z,103192.84
2019-01-02T01:36:09.972Z,103193.52
2019-01-02T01:37:11.784Z,103194.34
2019-01-02T01:38:12.227Z,103195.59
2019-01-02T01:39:11.716Z,103196.76
2019-01-02T01:40:13.448Z,103197.59
2019-01-02T01:41:14.068Z,103198.77
2019-01-02T01:42:13.620Z,103199.87
2019-01-02T01:43:15.179Z,103199.60
2019-01-02T01:44:15.639Z,103200.27
2019-01-02T01:45:16.632Z,103200.20
2019-01-02T01:46:17.210Z,103200.61
2019-01-02T01:47:17.080Z,103200.62
2019-01-02T01:48:18.800Z,103200.86
2019-01-02T01:49:19.244Z,103201.19
2019-01-02T01:50:18.682Z,103202.09
2019-01-02T01:51:20.501Z,103203.37
2019-01-02T01:52:20.945Z,103203.53
2019-01-02T01:53:20.300Z,103203.60
2019-01-02T01:54:21.798Z,103204.11
2019-01-02T01:55:22.581Z,103203.84
2019-01-02T01:56:22.267Z,103204.20
2019-01-02T01:57:23.734Z,103204.63
2019-01-02T01:58:24.243Z,103204.70
2019-01-02T01:59:23.844Z,103205.20
2019-01-02T02:00:25.295Z,103205.87
2019-01-02T02:01:25.885Z,103206.47
2019-01-02T02:02:25.467Z,103206.97
2019-01-02T02:03:26.913Z,103207.21
2019-01-02T02:03:35.232Z,103211.70
2019-01-02T02:04:36.776Z,103211.53
2019-01-02T02:05:36.299Z,103210.97
2019-01-02T02:06:37.710Z,103210.97
2019-01-02T02:07:38.389Z,103210.54
2019-01-02T02:08:37.823Z,103210.34
2019-01-02T02:09:39.325Z,103210.59
2019-01-02T02:10:39.905Z,103210.83
2019-01-02T02:11:39.577Z,103211.08
2019-01-02T02:12:41.053Z,103211.89
2019-01-02T02:13:41.922Z,103212.13
2019-01-02T02:14:41.785Z,103212.64
2019-01-02T02:15:43.306Z,103212.61
2019-01-02T02:16:43.885Z,103212.95
2019-01-02T02:17:43.391Z,103213.09
2019-01-02T02:18:45.048Z,103213.27
2019-01-02T02:19:45.467Z,103213.51
2019-01-02T02:20:45.172Z,103213.22
2019-01-02T02:21:46.703Z,103213.06
2019-01-02T02:22:47.318Z,103213.37
2019-01-02T02:23:47.844Z,103213.61
2019-01-02T02:24:47.172Z,103214.08
2019-01-02T02:25:47.679Z,103214.77
2019-01-02T02:26:49.570Z,103215.23
2019-01-02T02:27:50.050Z,103215.07
2019-01-02T02:28:49.644Z,103214.41
2019-01-02T02:29:51.140Z,103214.31
2019-01-02T02:30:51.621Z,103214.31
2019-01-02T02:31:51.088Z,103213.55
2019-01-02T02:32:52.770Z,103213.28
2019-01-02T02:33:53.165Z,103213.28
2019-01-02T02:34:52.576Z,103213.62
2019-01-02T02:35:52.974Z,103213.72
2019-01-02T02:36:53.615Z,103213.79
2019-01-02T02:37:54.095Z,103214.39
2019-01-02T02:38:54.717Z,103214.13
2019-01-02T02:39:55.153Z,103214.95
2019-01-02T02:40:56.182Z,103214.95
2019-01-02T02:41:56.722Z,103215.45
2019-01-02T02:42:56.430Z,103215.39
2019-01-02T02:43:57.256Z,103215.96
2019-01-02T02:44:57.847Z,103216.27
2019-01-02T02:45:58.323Z,103216.28
2019-01-02T02:46:58.559Z,103217.28
2019-01-02T02:48:00.020Z,103217.34
2019-01-02T02:48:59.577Z,103216.85
2019-01-02T02:50:00.087Z,103216.77
2019-01-02T02:51:00.619Z,103216.23
2019-01-02T02:52:01.239Z,103215.78
2019-01-02T02:53:02.755Z,103215.28
2019-01-02T02:54:02.314Z,103215.35
2019-01-02T02:55:02.998Z,103214.52
2019-01-02T02:56:04.159Z,103213.42
2019-01-02T02:57:03.787Z,103212.33
2019-01-02T02:58:05.450Z,103211.12
2019-01-02T02:59:06.262Z,103210.30
2019-01-02T03:00:05.740Z,103209.03
2019-01-02T03:01:07.508Z,103208.94
2019-01-02T03:02:07.034Z,103208.41
2019-01-02T03:03:07.647Z,103207.98
2019-01-02T03:04:09.211Z,103208.13
2019-01-02T03:05:08.738Z,103209.45
2019-01-02T03:06:09.303Z,103209.77
2019-01-02T03:07:11.147Z,103209.73
2019-01-02T03:08:10.637Z,103209.64
2019-01-02T03:09:11.135Z,103209.55
2019-01-02T03:10:12.746Z,103209.20
2019-01-02T03:11:12.248Z,103209.44
2019-01-02T03:12:12.904Z,103209.41
2019-01-02T03:13:13.332Z,103209.59
2019-01-02T03:14:13.988Z,103210.66
2019-01-02T03:15:14.192Z,103210.49
2019-01-02T03:16:15.631Z,103211.56
2019-01-02T03:17:15.307Z,103212.30
2019-01-02T03:18:15.749Z,103212.64
2019-01-02T03:19:18.194Z,103213.05
2019-01-02T03:20:16.864Z,103213.15
2019-01-02T03:20:25.240Z,103212.46
2019-01-02T03:21:26.856Z,103211.86
2019-01-02T03:22:26.357Z,103212.13
2019-01-02T03:23:26.910Z,103212.39
2019-01-02T03:24:28.351Z,103213.22
2019-01-02T03:25:28.113Z,103213.82
2019-01-02T03:26:28.592Z,103214.16
2019-01-02T03:27:30.034Z,103214.16
2019-01-02T03:28:29.421Z,103214.22
2019-01-02T03:29:30.029Z,103213.83
2019-01-02T03:30:30.477Z,103213.55
2019-01-02T03:31:31.144Z,103212.89
2019-01-02T03:32:31.737Z,103213.30
2019-01-02T03:33:32.192Z,103214.18
2019-01-02T03:34:34.192Z,103214.66
2019-01-02T03:35:34.834Z,103215.34
2019-01-02T03:36:34.453Z,103214.98
2019-01-02T03:37:36.227Z,103214.62
2019-01-02T03:38:36.743Z,103214.00
2019-01-02T03:39:37.137Z,103213.64
2019-01-02T03:40:37.668Z,103213.89
2019-01-02T03:41:38.189Z,103213.30
2019-01-02T03:42:38.629Z,103213.59
2019-01-02T03:43:39.012Z,103213.67
2019-01-02T03:44:39.659Z,103213.31
2019-01-02T03:45:40.343Z,103213.56
2019-01-02T03:46:41.023Z,103213.30
2019-01-02T03:47:41.523Z,103213.10
2019-01-02T03:48:41.980Z,103213.44
2019-01-02T03:49:42.351Z,103213.75
2019-01-02T03:50:43.989Z,103214.16
2019-01-02T03:51:43.633Z,103215.14
2019-01-02T03:52:44.074Z,103216.55
2019-01-02T03:53:44.962Z,103217.36
2019-01-02T03:54:45.346Z,103218.24
2019-01-02T03:55:45.868Z,103219.32
2019-01-02T03:56:46.271Z,103219.30
2019-01-02T03:57:46.698Z,103219.80
2019-01-02T03:58:47.160Z,103220.61
2019-01-02T03:59:47.726Z,103221.28
2019-01-02T04:00:48.236Z,103221.09
2019-01-02T04:01:48.751Z,103221.59
2019-01-02T04:02:49.280Z,103222.33
2019-01-02T04:03:49.888Z,103222.50
2019-01-02T04:04:50.343Z,103223.44
2019-01-02T04:05:50.797Z,103224.20
2019-01-02T04:06:51.198Z,103224.03
2019-01-02T04:07:51.815Z,103223.05
2019-01-02T04:08:52.256Z,103222.81
2019-01-02T04:09:52.837Z,103222.41
2019-01-02T04:10:53.402Z,103221.92
2019-01-02T04:11:54.174Z,103221.34
2019-01-02T04:12:05.546Z,103207.84
2019-01-02T04:13:06.935Z,103207.58
2019-01-02T04:14:07.565Z,103207.84
2019-01-02T04:15:06.529Z,103208.52
2019-01-02T04:16:08.078Z,103208.34
2019-01-02T04:17:08.470Z,103209.25
2019-01-02T04:18:09.257Z,103209.16
2019-01-02T04:19:09.852Z,103210.23
2019-01-02T04:20:10.336Z,103211.20
2019-01-02T04:21:10.773Z,103211.78
2019-01-02T04:22:11.209Z,103212.13
2019-01-02T04:23:12.096Z,103212.59
2019-01-02T04:24:12.656Z,103213.53
2019-01-02T04:25:13.109Z,103214.52
2019-01-02T04:26:13.718Z,103215.19
2019-01-02T04:27:14.212Z,103215.72
2019-01-02T04:28:14.715Z,103216.47
2019-01-02T04:29:15.199Z,103217.21
2019-01-02T04:30:15.836Z,103217.86
2019-01-02T04:31:16.299Z,103218.73
2019-01-02T04:32:16.725Z,103219.48
2019-01-02T04:33:17.160Z,103219.97
2019-01-02T04:34:17.648Z,103220.88
2019-01-02T04:35:18.200Z,103222.28
2019-01-02T04:36:18.897Z,103222.61
2019-01-02T04:37:19.727Z,103223.21
2019-01-02T04:38:20.312Z,103223.98
2019-01-02T04:39:20.736Z,103225.41
2019-01-02T04:40:21.149Z,103225.75
2019-01-02T04:41:21.605Z,103226.98
2019-01-02T04:42:22.071Z,103228.02
2019-01-02T04:43:22.435Z,103228.84
2019-01-02T04:44:23.088Z,103229.20
2019-01-02T04:45:23.529Z,103229.20
2019-01-02T04:46:24.122Z,103229.96
2019-01-02T04:47:24.907Z,103230.56
2019-01-02T04:48:25.460Z,103230.73
2019-01-02T04:49:26.086Z,103231.23
2019-01-02T04:50:26.089Z,103230.91
2019-01-02T04:51:26.538Z,103230.20
2019-01-02T04:52:27.279Z,103230.47
2019-01-02T04:53:28.007Z,103230.80
2019-01-02T04:54:28.355Z,103230.47
2019-01-02T04:55:28.926Z,103231.64
2019-01-02T04:56:29.476Z,103231.81
2019-01-02T04:56:37.865Z,103239.42
2019-01-02T04:57:38.195Z,103238.66
2019-01-02T04:58:39.679Z,103237.92
2019-01-02T04:59:40.288Z,103237.16
2019-01-02T05:00:40.726Z,103236.05
2019-01-02T05:01:41.433Z,103235.80
2019-01-02T05:02:41.953Z,103235.63
2019-01-02T05:03:42.752Z,103235.53
2019-01-02T05:04:43.407Z,103236.04
2019-01-02T05:05:44.371Z,103237.28
2019-01-02T05:06:44.863Z,103236.95
2019-01-02T05:07:45.588Z,103237.78
2019-01-02T05:08:46.235Z,103238.02
2019-01-02T05:09:46.661Z,103238.09
2019-01-02T05:10:47.241Z,103238.09
2019-01-02T05:11:47.939Z,103238.23
2019-01-02T05:12:48.350Z,103238.63
2019-01-02T05:13:48.732Z,103238.73
2019-01-02T05:14:49.183Z,103239.41
2019-01-02T05:15:49.609Z,103239.48
2019-01-02T05:16:50.413Z,103240.05
2019-01-02T05:17:51.023Z,103240.28
2019-01-02T05:18:51.629Z,103241.28
2019-01-02T05:19:52.249Z,103241.95
2019-01-02T05:20:52.673Z,103243.30
2019-01-02T05:21:53.332Z,103244.13
2019-01-02T05:22:53.769Z,103244.80
2019-01-02T05:23:54.226Z,103244.90
2019-01-02T05:24:54.535Z,103244.73
2019-01-02T05:25:55.015Z,103244.39
2019-01-02T05:26:55.434Z,103243.92
2019-01-02T05:27:56.028Z,103243.67
2019-01-02T05:28:56.621Z,103243.03
2019-01-02T05:29:57.066Z,103243.05
2019-01-02T05:30:57.466Z,103242.14
2019-01-02T05:31:58.264Z,103241.66
2019-01-02T05:32:58.991Z,103241.79
2019-01-02T05:33:58.527Z,103241.45
2019-01-02T05:35:00.229Z,103241.55
2019-01-02T05:35:59.666Z,103241.95
2019-01-02T05:37:01.317Z,103242.31
2019-01-02T05:38:01.795Z,103242.74
2019-01-02T05:39:01.375Z,103243.14
2019-01-02T05:40:02.817Z,103243.24
2019-01-02T05:41:03.427Z,103243.67
2019-01-02T05:42:04.125Z,103243.63
2019-01-02T05:43:04.576Z,103244.39
2019-01-02T05:44:05.104Z,103244.89
2019-01-02T05:44:13.486Z,103254.29
2019-01-02T05:45:14.260Z,103254.02
2019-01-02T05:46:14.925Z,103254.05
2019-01-02T05:47:15.456Z,103254.11
2019-01-02T05:48:16.126Z,103254.72
2019-01-02T05:49:16.813Z,103254.38
2019-01-02T05:50:17.352Z,103254.88
2019-01-02T05:51:17.763Z,103255.48
2019-01-02T05:52:18.588Z,103255.48
2019-01-02T05:53:19.052Z,103255.81
2019-01-02T05:54:20.156Z,103255.91
2019-01-02T05:55:19.081Z,103255.98
2019-01-02T05:56:20.595Z,103256.17
2019-01-02T05:57:21.174Z,103256.00
2019-01-02T05:58:21.773Z,103256.69
2019-01-02T05:59:22.319Z,103256.55
2019-01-02T06:00:22.752Z,103257.27
2019-01-02T06:01:23.252Z,103257.86
2019-01-02T06:02:23.753Z,103258.31
2019-01-02T06:03:24.334Z,103259.00
2019-01-02T06:04:24.835Z,103259.02
2019-01-02T06:05:25.514Z,103259.64
2019-01-02T06:06:25.995Z,103260.43
2019-01-02T06:07:26.580Z,103260.59
2019-01-02T06:08:27.191Z,103260.95
2019-01-02T06:09:27.979Z,103261.41
2019-01-02T06:10:28.439Z,103262.27
2019-01-02T06:11:28.903Z,103262.69
2019-01-02T06:12:29.478Z,103263.02
2019-01-02T06:13:29.952Z,103263.79
2019-01-02T06:14:30.675Z,103264.63
2019-01-02T06:15:31.158Z,103265.96
2019-01-02T06:16:31.699Z,103266.80
2019-01-02T06:17:32.228Z,103267.14
2019-01-02T06:18:32.634Z,103268.57
2019-01-02T06:19:33.091Z,103269.73
2019-01-02T06:20:33.587Z,103270.91
2019-01-02T06:21:34.398Z,103271.91
2019-01-02T06:22:34.932Z,103273.31
2019-01-02T06:23:35.439Z,103274.16
2019-01-02T06:24:35.864Z,103274.09
2019-01-02T06:25:36.427Z,103274.19
2019-01-02T06:26:37.054Z,103273.84
2019-01-02T06:27:37.429Z,103273.67
2019-01-02T06:28:37.905Z,103273.37
2019-01-02T06:29:38.777Z,103272.95
2019-01-02T06:29:46.825Z,103263.16
2019-01-02T06:30:48.297Z,103263.23
2019-01-02T06:31:48.924Z,103264.56
2019-01-02T06:32:49.545Z,103266.01
2019-01-02T06:33:50.230Z,103266.75
2019-01-02T06:34:50.735Z,103268.75
2019-01-02T06:35:51.327Z,103269.19
2019-01-02T06:36:51.721Z,103269.84
2019-01-02T06:37:52.177Z,103270.78
2019-01-02T06:38:52.773Z,103271.20
2019-01-02T06:39:53.083Z,103271.63
2019-01-02T06:40:53.749Z,103272.57
2019-01-02T06:41:54.331Z,103273.07
2019-01-02T06:42:54.944Z,103274.51
2019-01-02T06:43:55.461Z,103274.91
2019-01-02T06:44:56.031Z,103275.48
2019-01-02T06:45:56.556Z,103275.91
2019-01-02T06:46:57.274Z,103276.32
2019-01-02T06:47:56.711Z,103276.75
2019-01-02T06:48:58.492Z,103277.19
2019-01-02T06:49:59.182Z,103278.18
2019-01-02T06:50:59.630Z,103279.22
2019-01-02T06:52:00.156Z,103280.95
2019-01-02T06:53:00.903Z,103282.39
2019-01-02T06:54:00.499Z,103283.20
2019-01-02T06:55:02.005Z,103284.28
2019-01-02T06:56:02.471Z,103284.59
2019-01-02T06:57:03.111Z,103285.07
2019-01-02T06:58:03.942Z,103285.55
2019-01-02T06:59:04.457Z,103286.30
2019-01-02T07:00:05.353Z,103287.05
2019-01-02T07:01:06.142Z,103287.52
2019-01-02T07:02:06.851Z,103287.78
2019-01-02T07:03:07.408Z,103288.63
2019-01-02T07:04:08.034Z,103289.30
2019-01-02T07:05:08.850Z,103290.20
2019-01-02T07:06:09.664Z,103290.50
2019-01-02T07:07:10.553Z,103291.42
2019-01-02T07:08:11.007Z,103292.23
2019-01-02T07:09:11.442Z,103292.88
2019-01-02T07:10:12.171Z,103293.19
2019-01-02T07:11:12.827Z,103293.43
2019-01-02T07:12:13.384Z,103293.84
2019-01-02T07:13:13.886Z,103294.69
2019-01-02T07:14:14.400Z,103294.55
2019-01-02T07:15:15.297Z,103295.23
2019-01-02T07:15:23.718Z,103310.77
2019-01-02T07:16:24.066Z,103310.53
2019-01-02T07:17:25.586Z,103310.70
2019-01-02T07:18:26.011Z,103311.61
2019-01-02T07:19:26.451Z,103312.27
2019-01-02T07:20:26.864Z,103312.71
2019-01-02T07:21:27.508Z,103313.44
2019-01-02T07:22:27.987Z,103314.21
2019-01-02T07:23:28.447Z,103315.41
2019-01-02T07:24:28.890Z,103316.31
2019-01-02T07:25:29.675Z,103317.14
2019-01-02T07:26:30.515Z,103318.25
2019-01-02T07:27:31.188Z,103319.08
2019-01-02T07:28:32.090Z,103320.02
2019-01-02T07:29:32.581Z,103320.45
2019-01-02T07:30:33.124Z,103320.88
2019-01-02T07:31:34.068Z,103321.87
2019-01-02T07:32:34.729Z,103322.74
2019-01-02T07:33:35.165Z,103323.44
2019-01-02T07:34:35.668Z,103325.03
2019-01-02T07:35:36.087Z,103326.32
2019-01-02T07:36:36.696Z,103327.75
2019-01-02T07:37:37.284Z,103329.52
2019-01-02T07:38:37.752Z,103330.62
2019-01-02T07:39:37.188Z,103333.22
2019-01-02T07:40:38.741Z,103334.82
2019-01-02T07:41:39.373Z,103336.83
2019-01-02T07:42:40.002Z,103338.17
2019-01-02T07:43:40.611Z,103340.34
2019-01-02T07:44:41.374Z,103342.42
2019-01-02T07:45:41.913Z,103344.03
2019-01-02T07:46:42.423Z,103345.84
2019-01-02T07:47:42.794Z,103347.75
2019-01-02T07:48:43.367Z,103349.26
2019-01-02T07:49:43.893Z,103351.44
2019-01-02T07:50:44.749Z,103353.01
2019-01-02T07:51:45.255Z,103354.59
2019-01-02T07:52:45.676Z,103355.66
2019-01-02T07:53:46.331Z,103356.58
2019-01-02T07:54:46.991Z,103356.72
2019-01-02T07:55:47.499Z,103357.53
2019-01-02T07:56:47.881Z,103358.87
2019-01-02T07:57:48.347Z,103360.61
2019-01-02T07:58:48.826Z,103362.02
2019-01-02T07:58:57.781Z,103389.31
2019-01-02T07:59:59.261Z,103388.71
2019-01-02T08:00:59.788Z,103388.64
2019-01-02T08:02:00.427Z,103388.73
2019-01-02T08:03:00.976Z,103388.64
2019-01-02T08:04:01.811Z,103389.06
2019-01-02T08:05:02.462Z,103389.09
2019-01-02T08:06:02.437Z,103389.26
2019-01-02T08:07:03.358Z,103389.69
2019-01-02T08:08:03.824Z,103389.63
2019-01-02T08:09:03.932Z,103389.79
2019-01-02T08:10:04.760Z,103389.28
2019-01-02T08:11:05.413Z,103389.86
2019-01-02T08:12:06.028Z,103389.59
2019-01-02T08:13:06.538Z,103390.02
2019-01-02T08:14:07.115Z,103390.53
2019-01-02T08:15:07.667Z,103391.12
2019-01-02T08:16:08.260Z,103391.03
2019-01-02T08:17:08.679Z,103391.20
2019-01-02T08:18:09.194Z,103391.03
2019-01-02T08:19:09.711Z,103390.86
2019-01-02T08:20:10.295Z,103390.69
2019-01-02T08:21:10.345Z,103390.55
2019-01-02T08:22:10.707Z,103390.98
2019-01-02T08:23:14.740Z,103391.91
2019-01-02T08:24:17.481Z,103392.61
2019-01-02T08:25:13.028Z,103393.30
2019-01-02T08:26:12.759Z,103394.42
2019-01-02T08:27:14.341Z,103394.35
2019-01-02T08:28:15.185Z,103395.05
2019-01-02T08:29:15.682Z,103395.47
2019-01-02T08:30:16.154Z,103396.00
2019-01-02T08:31:16.824Z,103396.70
2019-01-02T08:32:17.080Z,103397.31
2019-01-02T08:33:17.855Z,103398.02
2019-01-02T08:34:18.425Z,103398.78
2019-01-02T08:35:19.294Z,103398.94
2019-01-02T08:36:20.019Z,103399.11
2019-01-02T08:37:20.478Z,103399.47
2019-01-02T08:38:21.030Z,103399.41
2019-01-02T08:39:22.436Z,103400.16
2019-01-02T08:40:21.213Z,103400.76
2019-01-02T08:41:22.935Z,103400.34
2019-01-02T08:42:23.103Z,103400.85
2019-01-02T08:43:23.540Z,103401.12
2019-01-02T08:44:24.151Z,103400.72
2019-01-02T08:44:32.795Z,103395.67
2019-01-02T08:45:33.138Z,103395.06
2019-01-02T08:46:33.717Z,103394.97
2019-01-02T08:47:35.171Z,103395.14
2019-01-02T08:48:35.788Z,103396.23
2019-01-02T08:49:36.510Z,103396.23
2019-01-02T08:50:37.222Z,103396.51
2019-01-02T08:51:36.754Z,103396.91
2019-01-02T08:52:38.284Z,103397.67
2019-01-02T08:53:39.012Z,103398.34
2019-01-02T08:54:39.663Z,103399.08
2019-01-02T08:55:40.327Z,103399.58
2019-01-02T08:56:41.260Z,103400.59
2019-01-02T08:57:40.386Z,103401.52
2019-01-02T08:58:42.275Z,103401.75
2019-01-02T08:59:43.060Z,103402.42
2019-01-02T09:00:43.870Z,103403.03
2019-01-02T09:01:44.290Z,103403.44
2019-01-02T09:02:44.869Z,103404.00
2019-01-02T09:03:45.638Z,103403.75
2019-01-02T09:04:46.577Z,103404.25
2019-01-02T09:05:47.122Z,103404.89
2019-01-02T09:06:47.580Z,103405.47
2019-01-02T09:07:48.143Z,103406.11
2019-01-02T09:08:48.652Z,103407.42
2019-01-02T09:09:49.246Z,103408.14
2019-01-02T09:10:49.911Z,103409.80
2019-01-02T09:11:51.447Z,103411.67
2019-01-02T09:12:51.062Z,103413.42
2019-01-02T09:13:51.615Z,103414.98
2019-01-02T09:14:52.381Z,103417.62
2019-01-02T09:15:52.813Z,103419.84
2019-01-02T09:16:53.283Z,103421.77
2019-01-02T09:17:53.772Z,103424.34
2019-01-02T09:18:54.345Z,103427.33
2019-01-02T09:19:55.277Z,103429.48
2019-01-02T09:20:55.402Z,103431.53
2019-01-02T09:21:55.989Z,103433.27
2019-01-02T09:22:56.519Z,103435.19
2019-01-02T09:23:56.594Z,103437.44
2019-01-02T09:24:57.293Z,103439.24
2019-01-02T09:25:57.697Z,103441.52
2019-01-02T09:26:58.246Z,103443.36
2019-01-02T09:27:58.851Z,103445.03
2019-01-02T09:28:59.481Z,103447.11
2019-01-02T09:30:00.252Z,103449.14
2019-01-02T09:30:59.567Z,103450.81
2019-01-02T09:32:01.478Z,103452.17
2019-01-02T09:33:02.002Z,103453.78
2019-01-02T09:33:12.982Z,103484.08
2019-01-02T09:34:12.706Z,103483.64
2019-01-02T09:35:13.283Z,103483.41
2019-01-02T09:36:13.880Z,103483.30
2019-01-02T09:37:14.332Z,103483.64
2019-01-02T09:38:14.796Z,103483.17
2019-01-02T09:39:15.312Z,103482.83
2019-01-02T09:40:17.208Z,103482.69
2019-01-02T09:41:16.941Z,103483.02
2019-01-02T09:42:17.510Z,103482.45
2019-01-02T09:43:24.381Z,103481.81
2019-01-02T09:44:17.823Z,103480.70
2019-01-02T09:45:19.560Z,103480.50
2019-01-02T09:46:20.091Z,103480.16
2019-01-02T09:47:19.569Z,103480.09
2019-01-02T09:48:20.031Z,103480.25
2019-01-02T09:49:21.463Z,103480.52
2019-01-02T09:50:22.093Z,103481.02
2019-01-02T09:51:22.872Z,103480.55
2019-01-02T09:52:23.269Z,103479.94
2019-01-02T09:53:23.731Z,103479.28
2019-01-02T09:54:24.263Z,103479.04
2019-01-02T09:55:24.801Z,103478.44
2019-01-02T09:56:25.467Z,103478.13
2019-01-02T09:57:26.070Z,103477.15
2019-01-02T09:58:26.599Z,103476.61
2019-01-02T09:59:27.492Z,103476.39
2019-01-02T10:00:27.935Z,103476.03
2019-01-02T10:01:28.448Z,103475.58
2019-01-02T10:02:28.464Z,103474.69
2019-01-02T10:03:30.031Z,103474.23
2019-01-02T10:04:30.199Z,103473.95
2019-01-02T10:05:30.994Z,103473.84
2019-01-02T10:06:31.669Z,103473.69
2019-01-02T10:07:32.190Z,103473.67
2019-01-02T10:08:32.935Z,103472.59
2019-01-02T10:09:33.409Z,103471.88
2019-01-02T10:10:34.136Z,103471.30
2019-01-02T10:11:34.993Z,103471.12
2019-01-02T10:12:35.566Z,103470.87
2019-01-02T10:13:36.374Z,103470.83
2019-01-02T10:14:36.889Z,103471.03
2019-01-02T10:15:37.707Z,103471.02
2019-01-02T10:16:38.318Z,103471.45
2019-01-02T10:17:38.836Z,103471.64
2019-01-02T10:18:39.248Z,103471.73
2019-01-02T10:19:39.983Z,103470.49
2019-01-02T10:20:43.906Z,103469.92
2019-01-02T10:21:40.158Z,103470.01
2019-01-02T10:21:48.219Z,103478.45
2019-01-02T10:22:50.195Z,103478.02
2019-01-02T10:23:50.694Z,103477.61
2019-01-02T10:24:51.245Z,103476.95
2019-01-02T10:25:50.550Z,103476.34
2019-01-02T10:26:52.176Z,103475.84
2019-01-02T10:27:52.786Z,103474.50
2019-01-02T10:28:52.817Z,103474.09
2019-01-02T10:29:53.472Z,103473.19
2019-01-02T10:30:53.961Z,103471.95
2019-01-02T10:31:54.557Z,103471.38
2019-01-02T10:32:54.675Z,103470.36
2019-01-02T10:33:55.443Z,103469.89
2019-01-02T10:34:56.321Z,103469.22
2019-01-02T10:35:56.772Z,103468.38
2019-01-02T10:36:57.381Z,103468.38
2019-01-02T10:37:58.016Z,103468.64
2019-01-02T10:38:58.532Z,103468.58
2019-01-02T10:39:59.171Z,103468.05
2019-01-02T10:40:59.961Z,103467.78
2019-01-02T10:42:00.781Z,103467.28
2019-01-02T10:43:01.736Z,103466.92
2019-01-02T10:44:02.546Z,103466.42
2019-01-02T10:45:03.053Z,103466.33
2019-01-02T10:46:03.578Z,103465.99
2019-01-02T10:47:04.288Z,103465.75
2019-01-02T10:48:04.881Z,103465.92
2019-01-02T10:49:05.449Z,103465.28
2019-01-02T10:50:06.035Z,103464.77
2019-01-02T10:51:06.865Z,103464.36
2019-01-02T10:52:07.478Z,103464.45
2019-01-02T10:53:08.086Z,103464.14
2019-01-02T10:54:08.671Z,103464.57
2019-01-02T10:55:09.192Z,103464.10
2019-01-02T10:56:09.769Z,103463.36
2019-01-02T10:57:10.217Z,103463.28
2019-01-02T10:58:10.750Z,103462.70
2019-01-02T10:59:11.285Z,103461.96
2019-01-02T11:00:11.803Z,103461.75
2019-01-02T11:01:12.454Z,103461.67
2019-01-02T11:02:11.911Z,103460.59
2019-01-02T11:03:13.644Z,103459.92
2019-01-02T11:04:14.395Z,103459.45
2019-01-02T11:05:14.836Z,103459.03
2019-01-02T11:06:15.413Z,103459.12
2019-01-02T11:07:15.975Z,103458.30
2019-01-02T11:08:16.761Z,103457.56
2019-01-02T11:08:25.165Z,103456.52
2019-01-02T11:09:26.700Z,103455.92
2019-01-02T11:10:27.090Z,103455.69
2019-01-02T11:11:27.850Z,103455.02
2019-01-02T11:12:28.588Z,103454.92
2019-01-02T11:13:29.252Z,103454.59
2019-01-02T11:14:29.983Z,103453.98
2019-01-02T11:15:30.703Z,103453.55
2019-01-02T11:16:31.565Z,103452.81
2019-01-02T11:17:32.044Z,103452.48
2019-01-02T11:18:32.796Z,103451.55
2019-01-02T11:19:33.641Z,103450.97